createdAt,value
2023-04-21T00:00:43.502Z,27.00
2023-04-21T00:03:11.052Z,29.00
2023-04-21T00:05:37.698Z,30.00
2023-04-21T00:08:04.227Z,28.00
2023-04-21T00:10:30.684Z,32.00
2023-04-21T00:12:57.149Z,32.00
2023-04-21T00:15:23.612Z,27.00
2023-04-21T00:17:50.121Z,24.00
2023-04-21T00:20:17.514Z,31.50
2023-04-21T00:22:44.892Z,24.50
2023-04-21T00:25:12.338Z,31.00
2023-04-21T00:27:38.808Z,27.00
2023-04-21T00:30:05.271Z,31.00
2023-04-21T00:32:31.776Z,20.50
2023-04-21T00:34:59.246Z,27.00
2023-04-21T00:37:25.735Z,24.50
2023-04-21T00:39:53.128Z,25.33
2023-04-21T00:42:19.604Z,30.50
2023-04-21T00:44:46.053Z,27.50
2023-04-21T00:47:13.490Z,27.50
2023-04-21T00:49:40.054Z,32.00
2023-04-21T00:52:07.438Z,30.00
2023-04-21T00:54:34.806Z,25.00
2023-04-21T00:57:02.852Z,28.00
2023-04-21T00:59:29.455Z,25.50
2023-04-21T01:01:55.944Z,28.50
2023-04-21T01:04:23.409Z,27.00
2023-04-21T01:06:49.891Z,26.50
2023-04-21T01:09:16.511Z,25.50
2023-04-21T01:11:43.053Z,25.00
2023-04-21T01:14:10.447Z,30.50
2023-04-21T01:16:37.006Z,25.00
2023-04-21T01:19:04.458Z,28.50
2023-04-21T01:21:31.845Z,25.33
2023-04-21T01:23:58.326Z,26.00
2023-04-21T01:26:24.831Z,25.00
2023-04-21T01:28:51.348Z,28.00
2023-04-21T01:31:17.817Z,26.00
2023-04-21T01:33:44.286Z,25.50
2023-04-21T01:36:10.765Z,22.00
2023-04-21T01:38:37.232Z,25.00
2023-04-21T01:41:04.620Z,26.00
2023-04-21T01:43:31.068Z,22.00
2023-04-21T01:45:57.561Z,26.50
2023-04-21T01:48:24.038Z,23.00
2023-04-21T01:50:50.507Z,23.00
2023-04-21T01:53:17.907Z,25.00
2023-04-21T01:55:44.366Z,23.00
2023-04-21T01:58:11.742Z,25.50
2023-04-21T02:00:38.202Z,24.00
2023-04-21T02:03:04.804Z,24.00
2023-04-21T02:05:31.464Z,22.00
2023-04-21T02:07:57.931Z,23.50
2023-04-21T02:10:24.467Z,26.00
2023-04-21T02:12:51.867Z,24.00
2023-04-21T02:15:19.286Z,22.33
2023-04-21T02:17:45.774Z,19.50
2023-04-21T02:20:13.609Z,26.00
2023-04-21T02:22:41.015Z,25.33
2023-04-21T02:25:08.413Z,23.33
2023-04-21T02:27:34.868Z,23.00
2023-04-21T02:30:01.335Z,23.00
2023-04-21T02:32:28.914Z,23.67
2023-04-21T02:34:55.427Z,27.00
2023-04-21T02:37:21.860Z,22.00
2023-04-21T02:39:49.235Z,22.33
2023-04-21T02:42:16.596Z,23.00
2023-04-21T02:44:43.998Z,23.67
2023-04-21T02:47:11.368Z,24.00
2023-04-21T02:49:37.818Z,22.00
2023-04-21T02:52:04.256Z,23.00
2023-04-21T02:54:31.638Z,21.67
2023-04-21T02:56:59.022Z,21.33
2023-04-21T02:59:26.414Z,23.33
2023-04-21T03:01:53.801Z,20.00
2023-04-21T03:04:20.431Z,23.00
2023-04-21T03:06:47.936Z,25.33
2023-04-21T03:09:14.407Z,22.00
2023-04-21T03:11:40.870Z,22.00
2023-04-21T03:14:08.225Z,21.00
2023-04-21T03:16:34.749Z,23.00
2023-04-21T03:19:02.201Z,21.67
2023-04-21T03:21:29.571Z,22.00
2023-04-21T03:23:56.036Z,22.50
2023-04-21T03:26:23.451Z,21.67
2023-04-21T03:28:50.839Z,21.67
2023-04-21T03:31:17.288Z,20.50
2023-04-21T03:33:43.715Z,17.00
2023-04-21T03:36:11.100Z,23.67
2023-04-21T03:38:38.488Z,21.00
2023-04-21T03:41:04.997Z,23.00
2023-04-21T03:43:32.356Z,20.67
2023-04-21T03:45:59.769Z,19.67
2023-04-21T03:48:26.277Z,24.00
2023-04-21T03:50:52.735Z,20.50
2023-04-21T03:53:19.187Z,21.00
2023-04-21T03:55:46.553Z,20.00
2023-04-21T03:58:13.948Z,19.67
2023-04-21T04:00:40.398Z,18.50
2023-04-21T04:03:06.986Z,19.50
2023-04-21T04:05:33.549Z,20.00
2023-04-21T04:08:00.023Z,23.00
2023-04-21T04:10:27.391Z,18.67
2023-04-21T04:12:54.756Z,21.33
2023-04-21T04:15:21.194Z,17.50
2023-04-21T04:17:48.577Z,17.00
2023-04-21T04:20:15.983Z,18.67
2023-04-21T04:22:42.425Z,19.50
2023-04-21T04:25:08.922Z,19.00
2023-04-21T04:27:35.339Z,16.00
2023-04-21T04:30:01.755Z,18.00
2023-04-21T04:32:29.153Z,19.33
2023-04-21T04:34:55.614Z,17.00
2023-04-21T04:37:22.937Z,18.67
2023-04-21T04:39:50.274Z,17.67
2023-04-21T04:42:17.600Z,19.67
2023-04-21T04:44:43.984Z,11.00
2023-04-21T04:47:11.362Z,18.33
2023-04-21T04:49:37.789Z,18.00
2023-04-21T04:52:04.238Z,19.50
2023-04-21T04:54:30.668Z,19.00
2023-04-21T04:56:58.071Z,19.00
2023-04-21T04:59:25.487Z,16.67
2023-04-21T05:01:52.007Z,18.00
2023-04-21T05:04:19.950Z,17.33
2023-04-21T05:06:47.787Z,16.67
2023-04-21T05:09:15.156Z,17.33
2023-04-21T05:11:42.478Z,19.00
2023-04-21T05:14:08.887Z,18.00
2023-04-21T05:16:36.257Z,18.33
2023-04-21T05:19:02.686Z,17.00
2023-04-21T05:21:29.174Z,15.00
2023-04-21T05:23:55.627Z,18.00
2023-04-21T05:26:22.135Z,13.00
2023-04-21T05:28:49.488Z,17.67
2023-04-21T05:31:16.738Z,16.00
2023-04-21T05:33:43.992Z,14.67
2023-04-21T05:36:10.481Z,14.50
2023-04-21T05:38:36.977Z,18.00
2023-04-21T05:41:04.258Z,15.67
2023-04-21T05:43:30.682Z,16.00
2023-04-21T05:45:57.129Z,14.50
2023-04-21T05:48:24.431Z,15.67
2023-04-21T05:50:51.758Z,16.00
2023-04-21T05:53:18.147Z,13.50
2023-04-21T05:55:45.409Z,14.33
2023-04-21T05:58:11.805Z,14.00
2023-04-21T06:00:38.274Z,13.00
2023-04-21T06:03:05.660Z,13.33
2023-04-21T06:05:33.215Z,17.67
2023-04-21T06:07:59.643Z,16.00
2023-04-21T06:10:26.907Z,16.67
2023-04-21T06:12:53.404Z,13.00
2023-04-21T06:15:19.868Z,11.50
2023-04-21T06:17:46.373Z,12.00
2023-04-21T06:20:12.869Z,11.00
2023-04-21T06:22:39.334Z,15.00
2023-04-21T06:25:05.756Z,12.00
2023-04-21T06:27:32.264Z,13.00
2023-04-21T06:29:59.566Z,17.00
2023-04-21T06:32:26.852Z,16.00
2023-04-21T06:34:53.369Z,13.50
2023-04-21T06:37:22.566Z,14.00
2023-04-21T06:39:49.065Z,14.00
2023-04-21T06:42:15.502Z,14.00
2023-04-21T06:44:41.942Z,16.00
2023-04-21T06:47:09.209Z,13.00
2023-04-21T06:49:35.743Z,15.00
2023-04-21T06:52:02.997Z,15.33
2023-04-21T06:54:31.292Z,13.20
2023-04-21T06:57:01.243Z,15.86
2023-04-21T06:59:28.517Z,14.00
2023-04-21T07:01:54.995Z,13.00
2023-04-21T07:04:21.735Z,15.50
2023-04-21T07:06:49.024Z,13.00
2023-04-21T07:09:15.424Z,16.00
2023-04-21T07:11:41.850Z,14.00
2023-04-21T07:14:08.373Z,13.00
2023-04-21T07:16:34.993Z,14.00
2023-04-21T07:19:03.338Z,13.80
2023-04-21T07:21:29.773Z,14.00
2023-04-21T07:23:56.262Z,18.50
2023-04-21T07:26:22.736Z,13.00
2023-04-21T07:28:49.241Z,12.00
2023-04-21T07:31:15.729Z,12.00
2023-04-21T07:33:42.248Z,12.00
2023-04-21T07:36:08.730Z,13.00
2023-04-21T07:38:35.985Z,14.33
2023-04-21T07:41:02.415Z,12.00
2023-04-21T07:43:28.865Z,12.00
2023-04-21T07:45:55.536Z,14.00
2023-04-21T07:48:22.116Z,15.00
2023-04-21T07:50:48.471Z,8.33
2023-04-21T07:53:14.881Z,12.50
2023-04-21T07:55:41.237Z,8.00
2023-04-21T07:58:07.725Z,12.00
2023-04-21T08:00:34.159Z,10.00
2023-04-21T08:03:00.771Z,11.00
2023-04-21T08:05:31.120Z,12.00
2023-04-21T08:07:59.811Z,14.00
2023-04-21T08:10:28.056Z,10.40
2023-04-21T08:12:54.482Z,12.00
2023-04-21T08:15:23.690Z,9.00
2023-04-21T08:17:51.004Z,9.50
2023-04-21T08:20:17.472Z,10.00
2023-04-21T08:22:44.910Z,10.50
2023-04-21T08:25:13.879Z,9.50
2023-04-21T08:27:40.215Z,8.50
2023-04-21T08:30:06.755Z,11.50
2023-04-21T08:32:35.126Z,10.00
2023-04-21T08:35:01.599Z,10.00
2023-04-21T08:37:28.004Z,10.50
2023-04-21T08:39:54.366Z,8.00
2023-04-21T08:42:23.502Z,9.67
2023-04-21T08:44:52.625Z,9.00
2023-04-21T08:47:19.865Z,10.25
2023-04-21T08:49:46.332Z,8.00
2023-04-21T08:52:13.523Z,8.75
2023-04-21T08:54:40.730Z,9.25
2023-04-21T08:57:15.288Z,9.00
2023-04-21T08:59:43.467Z,9.75
2023-04-21T09:02:10.850Z,7.25
2023-04-21T09:04:37.474Z,7.50
2023-04-21T09:07:04.042Z,9.00
2023-04-21T09:09:30.381Z,8.33
2023-04-21T09:11:56.759Z,8.33
2023-04-21T09:14:23.143Z,10.00
2023-04-21T09:16:50.451Z,8.50
2023-04-21T09:19:17.011Z,10.00
2023-04-21T09:21:43.453Z,7.00
2023-04-21T09:24:10.677Z,7.75
2023-04-21T09:26:39.789Z,9.00
2023-04-21T09:29:06.153Z,7.00
2023-04-21T09:31:32.512Z,6.67
2023-04-21T09:34:01.161Z,8.50
2023-04-21T09:36:28.835Z,8.00
2023-04-21T09:39:15.296Z,7.67
2023-04-21T09:41:41.474Z,7.00
2023-04-21T09:44:07.946Z,7.00
2023-04-21T09:46:35.214Z,7.50
2023-04-21T09:49:04.425Z,6.83
2023-04-21T09:51:49.205Z,7.00
2023-04-21T09:56:46.342Z,8.00
2023-04-21T09:59:12.693Z,7.67
2023-04-21T10:01:39.958Z,8.50
2023-04-21T10:04:07.296Z,9.50
2023-04-21T10:06:36.507Z,9.33
2023-04-21T10:09:02.924Z,11.00
2023-04-21T10:11:30.138Z,8.00
2023-04-21T10:13:57.345Z,9.00
2023-04-21T10:16:23.710Z,10.00
2023-04-21T10:18:50.064Z,8.00
2023-04-21T10:21:19.197Z,9.17
2023-04-21T10:23:46.423Z,8.00
2023-04-21T10:26:13.645Z,8.00
2023-04-21T10:28:40.031Z,9.00
2023-04-21T10:31:06.449Z,9.00
2023-04-21T10:33:32.858Z,7.50
2023-04-21T10:35:59.210Z,9.00
2023-04-21T10:38:25.535Z,7.00
2023-04-21T10:40:52.775Z,10.75
2023-04-21T10:43:19.109Z,7.00
2023-04-21T10:45:45.434Z,7.33
2023-04-21T10:48:11.832Z,9.00
2023-04-21T10:50:39.745Z,7.75
2023-04-21T10:53:07.063Z,9.00
2023-04-21T10:55:34.255Z,8.50
2023-04-21T10:58:00.606Z,8.00
2023-04-21T11:00:26.957Z,7.67
2023-04-21T11:02:53.403Z,8.00
2023-04-21T11:05:20.683Z,7.75
2023-04-21T11:07:47.037Z,8.33
2023-04-21T11:10:14.231Z,8.00
2023-04-21T11:12:40.624Z,7.00
2023-04-21T11:15:07.872Z,8.25
2023-04-21T11:17:34.305Z,7.67
2023-04-21T11:20:01.575Z,8.50
2023-04-21T11:22:27.894Z,7.33
2023-04-21T11:24:54.217Z,8.00
2023-04-21T11:27:20.537Z,8.50
2023-04-21T11:29:46.894Z,5.67
2023-04-21T11:32:13.232Z,7.33
2023-04-21T11:34:39.567Z,7.00
2023-04-21T11:37:05.929Z,6.00
2023-04-21T11:39:32.545Z,6.33
2023-04-21T11:41:58.885Z,6.00
2023-04-21T11:44:25.216Z,6.00
2023-04-21T11:46:52.413Z,6.50
2023-04-21T11:49:18.789Z,6.67
2023-04-21T11:51:45.150Z,6.33
2023-04-21T11:54:12.369Z,8.00
2023-04-21T11:56:38.734Z,8.33
2023-04-21T11:59:05.109Z,6.00
2023-04-21T12:01:31.611Z,6.00
2023-04-21T12:03:58.140Z,6.00
2023-04-21T12:06:24.660Z,7.00
2023-04-21T12:08:51.082Z,6.00
2023-04-21T12:11:18.286Z,6.75
2023-04-21T12:13:44.649Z,6.00
2023-04-21T12:16:11.019Z,7.00
2023-04-21T12:18:37.402Z,6.67
2023-04-21T12:21:03.749Z,6.67
2023-04-21T12:23:30.137Z,6.00
2023-04-21T12:25:56.475Z,7.00
2023-04-21T12:28:22.809Z,5.67
2023-04-21T12:30:49.167Z,7.00
2023-04-21T12:33:16.437Z,6.75
2023-04-21T12:35:42.825Z,6.00
2023-04-21T12:38:09.180Z,5.67
2023-04-21T12:40:35.520Z,8.00
2023-04-21T12:43:01.946Z,7.00
2023-04-21T12:45:28.355Z,9.00
2023-04-21T12:47:55.056Z,6.00
2023-04-21T12:50:21.433Z,7.67
2023-04-21T12:52:47.781Z,5.33
2023-04-21T12:55:14.113Z,6.33
2023-04-21T12:57:40.470Z,5.00
2023-04-21T13:00:07.121Z,7.00
2023-04-21T13:02:33.583Z,6.00
2023-04-21T13:04:59.948Z,6.00
2023-04-21T13:07:26.578Z,5.67
2023-04-21T13:09:53.292Z,5.00
2023-04-21T13:12:19.887Z,5.33
2023-04-21T13:14:46.514Z,5.67
2023-04-21T13:17:13.400Z,4.67
2023-04-21T13:19:39.947Z,5.33
2023-04-21T13:22:06.370Z,7.00
2023-04-21T13:24:32.711Z,7.00
2023-04-21T13:26:59.051Z,4.00
2023-04-21T13:29:25.384Z,6.33
2023-04-21T13:31:51.990Z,6.67
2023-04-21T13:34:19.231Z,6.00
2023-04-21T13:36:45.563Z,4.33
2023-04-21T13:39:11.960Z,6.67
2023-04-21T13:41:38.324Z,5.00
2023-04-21T13:44:04.736Z,6.00
2023-04-21T13:46:31.130Z,6.67
2023-04-21T13:48:57.536Z,5.00
2023-04-21T13:51:23.873Z,6.67
2023-04-21T13:53:50.236Z,5.67
2023-04-21T13:56:17.431Z,6.00
2023-04-21T13:58:43.758Z,7.33
2023-04-21T14:01:10.108Z,4.67
2023-04-21T14:03:36.687Z,5.33
2023-04-21T14:06:03.247Z,6.00
2023-04-21T14:08:29.882Z,5.00
2023-04-21T14:10:56.252Z,5.67
2023-04-21T14:13:33.861Z,5.00
2023-04-21T14:16:04.168Z,6.00
2023-04-21T14:18:30.578Z,7.00
2023-04-21T14:20:56.916Z,6.00
2023-04-21T14:23:23.297Z,6.00
2023-04-21T14:25:49.669Z,5.67
2023-04-21T14:28:16.065Z,6.33
2023-04-21T14:30:42.414Z,6.00
2023-04-21T14:33:08.816Z,7.00
2023-04-21T14:35:35.229Z,6.33
2023-04-21T14:38:01.562Z,6.00
2023-04-21T14:40:27.966Z,6.33
2023-04-21T14:42:54.302Z,5.00
2023-04-21T14:45:20.685Z,6.00
2023-04-21T14:47:47.241Z,5.00
2023-04-21T14:50:13.632Z,6.00
2023-04-21T14:52:39.970Z,5.00
2023-04-21T14:55:06.339Z,6.33
2023-04-21T14:57:32.676Z,6.00
2023-04-21T14:59:59.019Z,6.00
2023-04-21T15:02:25.532Z,6.00
2023-04-21T15:04:52.144Z,4.67
2023-04-21T15:07:23.982Z,7.00
2023-04-21T15:09:50.948Z,6.00
2023-04-21T15:12:18.237Z,4.25
2023-04-21T15:14:44.595Z,7.00
2023-04-21T15:17:11.054Z,7.00
2023-04-21T15:19:37.728Z,5.33
2023-04-21T15:22:04.264Z,7.00
2023-04-21T15:24:30.607Z,7.00
2023-04-21T15:26:56.939Z,7.00
2023-04-21T15:29:23.305Z,6.00
2023-04-21T15:31:49.675Z,5.00
2023-04-21T15:34:16.087Z,4.67
2023-04-21T15:36:42.427Z,7.33
2023-04-21T15:39:09.693Z,6.00
2023-04-21T15:41:36.049Z,5.33
2023-04-21T15:44:02.468Z,6.00
2023-04-21T15:46:29.025Z,5.00
2023-04-21T15:48:55.435Z,6.00
2023-04-21T15:51:21.792Z,5.33
2023-04-21T15:53:48.084Z,7.00
2023-04-21T15:56:14.479Z,5.33
2023-04-21T15:58:40.850Z,5.00
2023-04-21T16:01:07.341Z,5.33
2023-04-21T16:03:33.867Z,5.00
2023-04-21T16:06:00.474Z,5.00
2023-04-21T16:08:27.033Z,5.00
2023-04-21T16:10:53.418Z,7.00
2023-04-21T16:13:20.692Z,7.00
2023-04-21T16:15:47.119Z,6.67
2023-04-21T16:18:13.631Z,5.33
2023-04-21T16:20:40.009Z,6.33
2023-04-21T16:23:06.437Z,6.00
2023-04-21T16:25:32.897Z,6.00
2023-04-21T16:27:59.484Z,7.00
2023-04-21T16:30:26.148Z,5.00
2023-04-21T16:32:52.480Z,6.67
2023-04-21T16:35:18.989Z,5.33
2023-04-21T16:37:45.437Z,6.00
2023-04-21T16:40:12.728Z,5.25
2023-04-21T16:42:39.205Z,6.00
2023-04-21T16:45:05.567Z,6.67
2023-04-21T16:47:32.003Z,6.33
2023-04-21T16:49:58.468Z,6.67
2023-04-21T16:52:24.881Z,7.67
2023-04-21T16:54:51.209Z,5.67
2023-04-21T16:57:17.528Z,5.00
2023-04-21T16:59:43.864Z,6.33
2023-04-21T17:02:10.325Z,9.33
2023-04-21T17:04:37.865Z,7.50
2023-04-21T17:07:04.445Z,8.00
2023-04-21T17:09:30.843Z,6.00
2023-04-21T17:11:57.180Z,6.00
2023-04-21T17:14:23.525Z,5.67
2023-04-21T17:16:49.936Z,6.67
2023-04-21T17:19:16.347Z,5.00
2023-04-21T17:21:42.714Z,5.33
2023-04-21T17:24:09.086Z,6.00
2023-04-21T17:26:35.406Z,5.00
2023-04-21T17:29:01.773Z,4.00
2023-04-21T17:31:28.148Z,6.00
2023-04-21T17:33:54.607Z,9.00
2023-04-21T17:36:21.951Z,7.00
2023-04-21T17:38:48.297Z,6.00
2023-04-21T17:41:14.675Z,6.33
2023-04-21T17:43:41.016Z,6.67
2023-04-21T17:46:07.430Z,8.00
2023-04-21T17:48:33.911Z,7.33
2023-04-21T17:51:00.249Z,8.00
2023-04-21T17:53:29.356Z,5.00
2023-04-21T17:55:55.717Z,6.00
2023-04-21T17:58:22.080Z,9.67
2023-04-21T18:00:48.435Z,6.00
2023-04-21T18:03:15.778Z,6.75
2023-04-21T18:05:42.211Z,8.00
2023-04-21T18:08:09.421Z,7.25
2023-04-21T18:10:36.646Z,9.00
2023-04-21T18:13:02.968Z,8.00
2023-04-21T18:15:29.338Z,8.33
2023-04-21T18:17:55.724Z,7.67
2023-04-21T18:20:22.093Z,7.00
2023-04-21T18:22:48.461Z,7.00
2023-04-21T18:25:14.857Z,8.00
2023-04-21T18:27:41.276Z,10.50
2023-04-21T18:30:07.642Z,7.00
2023-04-21T18:32:34.886Z,7.75
2023-04-21T18:35:01.278Z,7.33
2023-04-21T18:37:27.667Z,9.33
2023-04-21T18:39:54.881Z,7.00
2023-04-21T18:42:21.215Z,7.00
2023-04-21T18:44:48.437Z,10.00
2023-04-21T18:47:14.845Z,9.00
2023-04-21T18:49:43.965Z,8.67
2023-04-21T18:52:13.082Z,10.00
2023-04-21T18:54:39.722Z,8.00
2023-04-21T18:57:06.238Z,11.00
2023-04-21T18:59:32.622Z,8.33
2023-04-21T19:02:00.901Z,10.60
2023-04-21T19:04:27.444Z,11.00
2023-04-21T19:06:55.809Z,11.60
2023-04-21T19:09:24.989Z,10.83
2023-04-21T19:11:51.430Z,12.00
2023-04-21T19:14:17.818Z,13.50
2023-04-21T19:16:44.225Z,17.00
2023-04-21T19:19:11.523Z,16.67
2023-04-21T19:21:38.807Z,17.33
2023-04-21T19:24:05.239Z,16.00
2023-04-21T19:26:31.640Z,14.50
2023-04-21T19:28:58.029Z,15.00
2023-04-21T19:31:26.460Z,15.67
2023-04-21T19:33:53.870Z,18.67
2023-04-21T19:36:20.291Z,16.00
2023-04-21T19:38:46.682Z,11.00
2023-04-21T19:41:13.115Z,14.50
2023-04-21T19:43:39.634Z,15.00
2023-04-21T19:46:08.068Z,16.60
2023-04-21T19:48:34.577Z,15.50
2023-04-21T19:51:01.098Z,13.00
2023-04-21T19:53:28.330Z,14.67
2023-04-21T19:55:55.611Z,16.67
2023-04-21T19:58:38.874Z,14.00
2023-04-21T20:01:07.507Z,19.33
2023-04-21T20:03:34.962Z,16.67
2023-04-21T20:06:01.575Z,19.50
2023-04-21T20:08:28.873Z,15.00
2023-04-21T20:10:56.090Z,14.00
2023-04-21T20:13:23.358Z,18.67
2023-04-21T20:15:50.724Z,19.00
2023-04-21T20:18:18.133Z,18.67
2023-04-21T20:20:45.528Z,19.67
2023-04-21T20:23:12.056Z,17.00
2023-04-21T20:25:38.494Z,18.00
2023-04-21T20:28:04.942Z,17.50
2023-04-21T20:30:32.265Z,20.00
2023-04-21T20:32:58.807Z,18.50
2023-04-21T20:35:25.358Z,18.00
2023-04-21T20:37:52.683Z,17.67
2023-04-21T20:40:20.096Z,21.00
2023-04-21T20:42:46.542Z,22.50
2023-04-21T20:45:13.045Z,18.00
2023-04-21T20:47:39.517Z,20.00
2023-04-21T20:50:06.009Z,21.00
2023-04-21T20:52:33.364Z,20.00
2023-04-21T20:54:59.805Z,19.00
2023-04-21T20:57:26.244Z,23.00
2023-04-21T20:59:53.600Z,20.33
2023-04-21T21:02:20.152Z,17.50
2023-04-21T21:04:47.657Z,18.67
2023-04-21T21:07:14.120Z,20.50
2023-04-21T21:09:40.701Z,22.50
2023-04-21T21:12:08.202Z,19.33
2023-04-21T21:14:34.650Z,19.50
2023-04-21T21:17:02.063Z,19.00
2023-04-21T21:19:29.494Z,25.00
2023-04-21T21:21:56.762Z,18.00
2023-04-21T21:24:23.232Z,27.00
2023-04-21T21:26:50.609Z,24.33
2023-04-21T21:29:17.983Z,25.00
2023-04-21T21:31:45.393Z,22.67
2023-04-21T21:34:11.879Z,20.50
2023-04-21T21:36:38.349Z,23.50
2023-04-21T21:39:06.263Z,25.33
2023-04-21T21:41:34.026Z,20.33
2023-04-21T21:44:00.476Z,24.00
2023-04-21T21:46:27.924Z,25.33
2023-04-21T21:48:55.335Z,20.67
2023-04-21T21:51:21.811Z,25.00
2023-04-21T21:53:49.201Z,25.67
2023-04-21T21:56:15.647Z,23.00
2023-04-21T21:58:42.095Z,26.00
2023-04-21T22:01:09.502Z,19.00
2023-04-21T22:03:36.269Z,24.00
2023-04-21T22:06:03.790Z,22.67
2023-04-21T22:08:31.198Z,23.33
2023-04-21T22:10:57.656Z,24.50
2023-04-21T22:13:24.116Z,24.50
2023-04-21T22:15:51.498Z,29.00
2023-04-21T22:18:17.940Z,23.50
2023-04-21T22:20:45.330Z,22.33
2023-04-21T22:23:11.786Z,25.50
2023-04-21T22:25:38.247Z,25.00
2023-04-21T22:28:04.715Z,23.50
2023-04-21T22:30:31.170Z,21.50
2023-04-21T22:32:57.705Z,27.00
2023-04-21T22:35:25.137Z,27.00
2023-04-21T22:37:51.631Z,24.50
2023-04-21T22:40:19.060Z,25.00
2023-04-21T22:42:45.536Z,27.50
2023-04-21T22:45:12.934Z,24.00
2023-04-21T22:47:39.414Z,26.50
2023-04-21T22:50:05.926Z,29.00
2023-04-21T22:52:32.394Z,28.00
2023-04-21T22:54:58.873Z,26.00
2023-04-21T22:57:25.363Z,31.00
2023-04-21T22:59:51.832Z,30.00
2023-04-21T23:02:19.323Z,25.00
2023-04-21T23:04:46.779Z,26.00
2023-04-21T23:07:13.263Z,23.00
2023-04-21T23:09:40.051Z,31.00
2023-04-21T23:12:06.814Z,27.50
2023-04-21T23:14:34.196Z,27.33
2023-04-21T23:17:01.671Z,20.50
2023-04-21T23:19:28.187Z,28.50
2023-04-21T23:21:55.586Z,29.00
2023-04-21T23:24:22.968Z,25.67
2023-04-21T23:26:49.429Z,24.00
2023-04-21T23:29:15.913Z,25.00
2023-04-21T23:31:42.439Z,26.00
2023-04-21T23:34:08.984Z,29.50
2023-04-21T23:36:36.358Z,26.00
2023-04-21T23:39:02.796Z,26.00
2023-04-21T23:41:30.168Z,27.67
2023-04-21T23:43:56.634Z,23.00
2023-04-21T23:46:24.063Z,25.33
2023-04-21T23:48:50.537Z,32.00
2023-04-21T23:51:17.937Z,27.67
2023-04-21T23:53:44.412Z,27.00
2023-04-21T23:56:10.882Z,25.00
2023-04-21T23:58:38.317Z,26.00
